sensor_id;sensor_type;location;lat;lon;timestamp;temperature;humidity
24146;DHT22;12308;50.948;4.706;2023-10-19T00:00:46;17.00;99.90
24146;DHT22;12308;50.948;4.706;2023-10-19T00:03:19;17.00;99.90
24146;DHT22;12308;50.948;4.706;2023-10-19T00:05:46;17.00;99.90
24146;DHT22;12308;50.948;4.706;2023-10-19T00:08:13;17.00;99.90
24146;DHT22;12308;50.948;4.706;2023-10-19T00:10:40;16.90;99.90
24146;DHT22;12308;50.948;4.706;2023-10-19T00:13:08;16.90;99.90
24146;DHT22;12308;50.948;4.706;2023-10-19T00:15:35;17.00;99.90
24146;DHT22;12308;50.948;4.706;2023-10-19T00:18:06;16.90;99.90
24146;DHT22;12308;50.948;4.706;2023-10-19T00:20:41;16.80;99.90
24146;DHT22;12308;50.948;4.706;2023-10-19T00:23:06;16.90;99.90
24146;DHT22;12308;50.948;4.706;2023-10-19T00:25:32;16.80;99.90
24146;DHT22;12308;50.948;4.706;2023-10-19T00:28:00;16.90;99.90
24146;DHT22;12308;50.948;4.706;2023-10-19T00:30:29;17.00;99.90
24146;DHT22;12308;50.948;4.706;2023-10-19T00:32:58;17.00;99.90
24146;DHT22;12308;50.948;4.706;2023-10-19T00:35:38;16.90;99.90
24146;DHT22;12308;50.948;4.706;2023-10-19T00:38:13;16.90;99.90
24146;DHT22;12308;50.948;4.706;2023-10-19T00:40:57;16.90;99.90
24146;DHT22;12308;50.948;4.706;2023-10-19T00:43:33;16.90;99.90
24146;DHT22;12308;50.948;4.706;2023-10-19T00:46:02;16.90;99.90
24146;DHT22;12308;50.948;4.706;2023-10-19T00:48:35;16.80;99.90
24146;DHT22;12308;50.948;4.706;2023-10-19T00:51:03;16.90;99.90
24146;DHT22;12308;50.948;4.706;2023-10-19T00:53:37;17.00;99.90
24146;DHT22;12308;50.948;4.706;2023-10-19T00:56:04;17.10;99.90
24146;DHT22;12308;50.948;4.706;2023-10-19T00:58:32;17.00;99.90
24146;DHT22;12308;50.948;4.706;2023-10-19T01:01:02;16.90;99.90
24146;DHT22;12308;50.948;4.706;2023-10-19T01:03:31;16.90;99.90
24146;DHT22;12308;50.948;4.706;2023-10-19T01:06:01;16.90;99.90
24146;DHT22;12308;50.948;4.706;2023-10-19T01:08:31;17.00;99.90
24146;DHT22;12308;50.948;4.706;2023-10-19T01:11:10;16.90;99.90
24146;DHT22;12308;50.948;4.706;2023-10-19T01:13:38;17.00;99.90
24146;DHT22;12308;50.948;4.706;2023-10-19T01:16:04;17.00;99.90
24146;DHT22;12308;50.948;4.706;2023-10-19T01:18:30;17.00;99.90
24146;DHT22;12308;50.948;4.706;2023-10-19T01:20:59;16.90;99.90
24146;DHT22;12308;50.948;4.706;2023-10-19T01:23:30;16.90;99.90
24146;DHT22;12308;50.948;4.706;2023-10-19T01:25:57;16.90;99.90
24146;DHT22;12308;50.948;4.706;2023-10-19T01:28:24;17.00;99.90
24146;DHT22;12308;50.948;4.706;2023-10-19T01:31:20;17.00;99.90
24146;DHT22;12308;50.948;4.706;2023-10-19T01:34:00;16.90;99.90
24146;DHT22;12308;50.948;4.706;2023-10-19T01:36:35;16.90;99.90
24146;DHT22;12308;50.948;4.706;2023-10-19T01:39:10;17.00;99.90
24146;DHT22;12308;50.948;4.706;2023-10-19T01:41:37;16.80;99.90
24146;DHT22;12308;50.948;4.706;2023-10-19T01:44:04;16.90;99.90
24146;DHT22;12308;50.948;4.706;2023-10-19T01:46:30;16.80;99.90
24146;DHT22;12308;50.948;4.706;2023-10-19T01:49:03;16.80;99.90
24146;DHT22;12308;50.948;4.706;2023-10-19T01:51:33;16.90;99.90
24146;DHT22;12308;50.948;4.706;2023-10-19T01:54:04;16.80;99.90
24146;DHT22;12308;50.948;4.706;2023-10-19T01:56:31;16.90;99.90
24146;DHT22;12308;50.948;4.706;2023-10-19T01:58:58;16.90;99.90
24146;DHT22;12308;50.948;4.706;2023-10-19T02:01:24;16.80;99.90
24146;DHT22;12308;50.948;4.706;2023-10-19T02:04:00;16.70;99.90
24146;DHT22;12308;50.948;4.706;2023-10-19T02:06:27;16.70;99.90
24146;DHT22;12308;50.948;4.706;2023-10-19T02:09:12;16.70;99.90
24146;DHT22;12308;50.948;4.706;2023-10-19T02:11:57;16.90;99.90
24146;DHT22;12308;50.948;4.706;2023-10-19T02:14:25;16.90;99.90
24146;DHT22;12308;50.948;4.706;2023-10-19T02:16:55;16.80;99.90
24146;DHT22;12308;50.948;4.706;2023-10-19T02:19:23;16.80;99.90
24146;DHT22;12308;50.948;4.706;2023-10-19T02:21:52;16.60;99.90
24146;DHT22;12308;50.948;4.706;2023-10-19T02:24:18;16.70;99.90
24146;DHT22;12308;50.948;4.706;2023-10-19T02:26:48;16.70;99.90
24146;DHT22;12308;50.948;4.706;2023-10-19T02:29:14;16.70;99.90
24146;DHT22;12308;50.948;4.706;2023-10-19T02:31:40;16.70;99.90
24146;DHT22;12308;50.948;4.706;2023-10-19T02:34:11;16.70;99.90
24146;DHT22;12308;50.948;4.706;2023-10-19T02:36:39;16.60;99.90
24146;DHT22;12308;50.948;4.706;2023-10-19T02:39:10;16.60;99.90
24146;DHT22;12308;50.948;4.706;2023-10-19T02:41:40;16.50;99.90
24146;DHT22;12308;50.948;4.706;2023-10-19T02:44:20;16.50;99.90
24146;DHT22;12308;50.948;4.706;2023-10-19T02:46:49;16.30;99.90
24146;DHT22;12308;50.948;4.706;2023-10-19T02:49:17;16.40;99.90
24146;DHT22;12308;50.948;4.706;2023-10-19T02:51:47;16.30;99.90
24146;DHT22;12308;50.948;4.706;2023-10-19T02:54:30;16.20;99.90
24146;DHT22;12308;50.948;4.706;2023-10-19T02:57:00;16.30;99.90
24146;DHT22;12308;50.948;4.706;2023-10-19T02:59:27;16.30;99.90
24146;DHT22;12308;50.948;4.706;2023-10-19T03:01:59;16.30;99.90
24146;DHT22;12308;50.948;4.706;2023-10-19T03:04:32;16.20;99.90
24146;DHT22;12308;50.948;4.706;2023-10-19T03:07:03;16.30;99.90
24146;DHT22;12308;50.948;4.706;2023-10-19T03:09:29;16.30;99.90
24146;DHT22;12308;50.948;4.706;2023-10-19T03:11:56;16.30;99.90
24146;DHT22;12308;50.948;4.706;2023-10-19T03:14:26;16.40;99.90
24146;DHT22;12308;50.948;4.706;2023-10-19T03:16:53;16.20;99.90
24146;DHT22;12308;50.948;4.706;2023-10-19T03:19:21;15.90;99.90
24146;DHT22;12308;50.948;4.706;2023-10-19T03:21:47;15.90;99.90
24146;DHT22;12308;50.948;4.706;2023-10-19T03:24:17;16.00;99.90
24146;DHT22;12308;50.948;4.706;2023-10-19T03:27:04;15.90;99.90
24146;DHT22;12308;50.948;4.706;2023-10-19T03:30:03;15.90;99.90
24146;DHT22;12308;50.948;4.706;2023-10-19T03:32:28;15.80;99.90
24146;DHT22;12308;50.948;4.706;2023-10-19T03:34:58;15.70;99.90
24146;DHT22;12308;50.948;4.706;2023-10-19T03:37:26;15.60;99.90
24146;DHT22;12308;50.948;4.706;2023-10-19T03:39:55;15.70;99.90
24146;DHT22;12308;50.948;4.706;2023-10-19T03:42:24;15.70;99.90
24146;DHT22;12308;50.948;4.706;2023-10-19T03:44:58;15.90;99.90
24146;DHT22;12308;50.948;4.706;2023-10-19T03:47:25;15.90;99.90
24146;DHT22;12308;50.948;4.706;2023-10-19T03:49:53;16.00;99.90
24146;DHT22;12308;50.948;4.706;2023-10-19T03:52:19;16.10;99.90
24146;DHT22;12308;50.948;4.706;2023-10-19T03:54:46;16.10;99.90
24146;DHT22;12308;50.948;4.706;2023-10-19T03:57:14;16.20;99.90
24146;DHT22;12308;50.948;4.706;2023-10-19T03:59:45;16.10;99.90
24146;DHT22;12308;50.948;4.706;2023-10-19T04:02:11;16.20;99.90
24146;DHT22;12308;50.948;4.706;2023-10-19T04:04:43;16.20;99.90
24146;DHT22;12308;50.948;4.706;2023-10-19T04:07:10;16.20;99.90
24146;DHT22;12308;50.948;4.706;2023-10-19T04:09:40;16.30;99.90
24146;DHT22;12308;50.948;4.706;2023-10-19T04:12:23;16.20;99.90
24146;DHT22;12308;50.948;4.706;2023-10-19T04:14:49;16.30;99.90
24146;DHT22;12308;50.948;4.706;2023-10-19T04:17:15;16.30;99.90
24146;DHT22;12308;50.948;4.706;2023-10-19T04:19:41;16.20;99.90
24146;DHT22;12308;50.948;4.706;2023-10-19T04:22:07;16.30;99.90
24146;DHT22;12308;50.948;4.706;2023-10-19T04:24:36;16.30;99.90
24146;DHT22;12308;50.948;4.706;2023-10-19T04:27:02;16.30;99.90
24146;DHT22;12308;50.948;4.706;2023-10-19T04:29:29;16.30;99.90
24146;DHT22;12308;50.948;4.706;2023-10-19T04:31:55;16.50;99.90
24146;DHT22;12308;50.948;4.706;2023-10-19T04:34:21;16.40;99.90
24146;DHT22;12308;50.948;4.706;2023-10-19T04:36:48;16.40;99.90
24146;DHT22;12308;50.948;4.706;2023-10-19T04:39:13;16.40;99.90
24146;DHT22;12308;50.948;4.706;2023-10-19T04:41:40;16.40;99.90
24146;DHT22;12308;50.948;4.706;2023-10-19T04:44:06;16.40;99.90
24146;DHT22;12308;50.948;4.706;2023-10-19T04:46:34;16.40;99.90
24146;DHT22;12308;50.948;4.706;2023-10-19T04:49:00;16.30;99.90
24146;DHT22;12308;50.948;4.706;2023-10-19T04:51:27;16.40;99.90
24146;DHT22;12308;50.948;4.706;2023-10-19T04:53:54;16.40;99.90
24146;DHT22;12308;50.948;4.706;2023-10-19T04:56:21;16.50;99.90
24146;DHT22;12308;50.948;4.706;2023-10-19T04:58:47;16.50;99.90
24146;DHT22;12308;50.948;4.706;2023-10-19T05:01:13;16.50;99.90
24146;DHT22;12308;50.948;4.706;2023-10-19T05:03:41;16.40;99.90
24146;DHT22;12308;50.948;4.706;2023-10-19T05:06:07;16.40;99.90
24146;DHT22;12308;50.948;4.706;2023-10-19T05:08:35;16.40;99.90
24146;DHT22;12308;50.948;4.706;2023-10-19T05:11:00;16.40;99.90
24146;DHT22;12308;50.948;4.706;2023-10-19T05:13:26;16.30;99.90
24146;DHT22;12308;50.948;4.706;2023-10-19T05:15:53;16.40;99.90
24146;DHT22;12308;50.948;4.706;2023-10-19T05:18:20;16.40;99.90
24146;DHT22;12308;50.948;4.706;2023-10-19T05:20:46;16.50;99.90
24146;DHT22;12308;50.948;4.706;2023-10-19T05:23:12;16.60;99.90
24146;DHT22;12308;50.948;4.706;2023-10-19T05:25:40;16.50;99.90
24146;DHT22;12308;50.948;4.706;2023-10-19T05:28:06;16.50;99.90
24146;DHT22;12308;50.948;4.706;2023-10-19T05:30:33;16.50;99.90
24146;DHT22;12308;50.948;4.706;2023-10-19T05:32:59;16.50;99.90
24146;DHT22;12308;50.948;4.706;2023-10-19T05:35:28;16.50;99.90
24146;DHT22;12308;50.948;4.706;2023-10-19T05:37:55;16.60;99.90
24146;DHT22;12308;50.948;4.706;2023-10-19T05:40:26;16.70;99.90
24146;DHT22;12308;50.948;4.706;2023-10-19T05:42:56;16.60;99.90
24146;DHT22;12308;50.948;4.706;2023-10-19T05:45:23;16.60;99.90
24146;DHT22;12308;50.948;4.706;2023-10-19T05:47:48;16.50;99.90
24146;DHT22;12308;50.948;4.706;2023-10-19T05:50:14;16.50;99.90
24146;DHT22;12308;50.948;4.706;2023-10-19T05:52:43;16.60;99.90
24146;DHT22;12308;50.948;4.706;2023-10-19T05:55:09;16.60;99.90
24146;DHT22;12308;50.948;4.706;2023-10-19T05:57:39;16.50;99.90
24146;DHT22;12308;50.948;4.706;2023-10-19T06:00:12;16.50;99.90
24146;DHT22;12308;50.948;4.706;2023-10-19T06:02:45;16.50;99.90
24146;DHT22;12308;50.948;4.706;2023-10-19T06:05:12;16.60;99.90
24146;DHT22;12308;50.948;4.706;2023-10-19T06:07:38;16.60;99.90
24146;DHT22;12308;50.948;4.706;2023-10-19T06:10:04;16.60;99.90
24146;DHT22;12308;50.948;4.706;2023-10-19T06:12:31;16.60;99.90
24146;DHT22;12308;50.948;4.706;2023-10-19T06:14:57;16.70;99.90
24146;DHT22;12308;50.948;4.706;2023-10-19T06:17:23;16.70;99.90
24146;DHT22;12308;50.948;4.706;2023-10-19T06:19:49;16.60;99.90
24146;DHT22;12308;50.948;4.706;2023-10-19T06:22:15;16.70;99.90
24146;DHT22;12308;50.948;4.706;2023-10-19T06:24:43;16.60;99.90
24146;DHT22;12308;50.948;4.706;2023-10-19T06:27:12;16.60;99.90
24146;DHT22;12308;50.948;4.706;2023-10-19T06:29:38;16.70;99.90
24146;DHT22;12308;50.948;4.706;2023-10-19T06:32:04;16.60;99.90
24146;DHT22;12308;50.948;4.706;2023-10-19T06:34:30;16.60;99.90
24146;DHT22;12308;50.948;4.706;2023-10-19T06:36:55;16.50;99.90
24146;DHT22;12308;50.948;4.706;2023-10-19T06:39:21;16.50;99.90
24146;DHT22;12308;50.948;4.706;2023-10-19T06:41:47;16.50;99.90
24146;DHT22;12308;50.948;4.706;2023-10-19T06:44:14;16.50;99.90
24146;DHT22;12308;50.948;4.706;2023-10-19T06:46:42;16.50;99.90
24146;DHT22;12308;50.948;4.706;2023-10-19T06:49:09;16.50;99.90
24146;DHT22;12308;50.948;4.706;2023-10-19T06:51:35;16.50;99.90
24146;DHT22;12308;50.948;4.706;2023-10-19T06:54:02;16.50;99.90
24146;DHT22;12308;50.948;4.706;2023-10-19T06:56:28;16.60;99.90
24146;DHT22;12308;50.948;4.706;2023-10-19T06:58:56;16.50;99.90
24146;DHT22;12308;50.948;4.706;2023-10-19T07:01:22;16.50;99.90
24146;DHT22;12308;50.948;4.706;2023-10-19T07:03:51;16.50;99.90
24146;DHT22;12308;50.948;4.706;2023-10-19T07:06:19;16.40;99.90
24146;DHT22;12308;50.948;4.706;2023-10-19T07:08:45;16.40;99.90
24146;DHT22;12308;50.948;4.706;2023-10-19T07:11:11;16.50;99.90
24146;DHT22;12308;50.948;4.706;2023-10-19T07:13:38;16.50;99.90
24146;DHT22;12308;50.948;4.706;2023-10-19T07:16:05;16.50;99.90
24146;DHT22;12308;50.948;4.706;2023-10-19T07:18:31;16.60;99.90
24146;DHT22;12308;50.948;4.706;2023-10-19T07:20:57;16.60;99.90
24146;DHT22;12308;50.948;4.706;2023-10-19T07:23:30;16.50;99.90
24146;DHT22;12308;50.948;4.706;2023-10-19T07:25:56;16.40;99.90
24146;DHT22;12308;50.948;4.706;2023-10-19T07:28:25;16.50;99.90
24146;DHT22;12308;50.948;4.706;2023-10-19T07:30:52;16.50;99.90
24146;DHT22;12308;50.948;4.706;2023-10-19T07:33:18;16.50;99.90
24146;DHT22;12308;50.948;4.706;2023-10-19T07:35:49;16.50;99.90
24146;DHT22;12308;50.948;4.706;2023-10-19T07:38:21;16.40;99.90
24146;DHT22;12308;50.948;4.706;2023-10-19T07:40:47;16.50;99.90
24146;DHT22;12308;50.948;4.706;2023-10-19T07:43:13;16.50;99.90
24146;DHT22;12308;50.948;4.706;2023-10-19T07:45:39;16.40;99.90
24146;DHT22;12308;50.948;4.706;2023-10-19T07:48:05;16.50;99.90
24146;DHT22;12308;50.948;4.706;2023-10-19T07:50:35;16.50;99.90
24146;DHT22;12308;50.948;4.706;2023-10-19T07:53:02;16.60;99.90
24146;DHT22;12308;50.948;4.706;2023-10-19T07:55:28;16.70;99.90
24146;DHT22;12308;50.948;4.706;2023-10-19T07:57:54;16.80;99.90
24146;DHT22;12308;50.948;4.706;2023-10-19T08:00:21;16.90;99.90
24146;DHT22;12308;50.948;4.706;2023-10-19T08:02:46;16.90;99.90
24146;DHT22;12308;50.948;4.706;2023-10-19T08:05:16;16.90;99.90
24146;DHT22;12308;50.948;4.706;2023-10-19T08:07:44;16.90;99.90
24146;DHT22;12308;50.948;4.706;2023-10-19T08:10:11;17.00;99.90
24146;DHT22;12308;50.948;4.706;2023-10-19T08:12:38;17.00;99.90
24146;DHT22;12308;50.948;4.706;2023-10-19T08:15:10;17.10;99.90
24146;DHT22;12308;50.948;4.706;2023-10-19T08:17:45;17.30;99.90
24146;DHT22;12308;50.948;4.706;2023-10-19T08:20:13;17.50;99.90
24146;DHT22;12308;50.948;4.706;2023-10-19T08:22:43;17.60;99.90
24146;DHT22;12308;50.948;4.706;2023-10-19T08:25:09;17.80;99.90
24146;DHT22;12308;50.948;4.706;2023-10-19T08:27:40;18.00;99.90
24146;DHT22;12308;50.948;4.706;2023-10-19T08:30:10;18.10;99.90
24146;DHT22;12308;50.948;4.706;2023-10-19T08:32:38;18.20;99.90
24146;DHT22;12308;50.948;4.706;2023-10-19T08:35:05;18.20;99.90
24146;DHT22;12308;50.948;4.706;2023-10-19T08:37:31;18.20;99.90
24146;DHT22;12308;50.948;4.706;2023-10-19T08:39:57;18.30;99.90
24146;DHT22;12308;50.948;4.706;2023-10-19T08:42:24;18.30;99.90
24146;DHT22;12308;50.948;4.706;2023-10-19T08:44:50;18.40;99.90
24146;DHT22;12308;50.948;4.706;2023-10-19T08:47:16;18.40;99.90
24146;DHT22;12308;50.948;4.706;2023-10-19T08:49:42;18.40;99.90
24146;DHT22;12308;50.948;4.706;2023-10-19T08:52:08;18.20;99.90
24146;DHT22;12308;50.948;4.706;2023-10-19T08:54:34;18.20;99.90
24146;DHT22;12308;50.948;4.706;2023-10-19T08:57:00;18.00;99.90
24146;DHT22;12308;50.948;4.706;2023-10-19T08:59:26;18.10;99.90
24146;DHT22;12308;50.948;4.706;2023-10-19T09:02:01;18.30;99.90
24146;DHT22;12308;50.948;4.706;2023-10-19T09:04:28;18.20;99.90
24146;DHT22;12308;50.948;4.706;2023-10-19T09:06:54;18.10;99.90
24146;DHT22;12308;50.948;4.706;2023-10-19T09:09:21;18.10;99.90
24146;DHT22;12308;50.948;4.706;2023-10-19T09:11:49;18.10;99.90
24146;DHT22;12308;50.948;4.706;2023-10-19T09:14:15;18.10;99.90
24146;DHT22;12308;50.948;4.706;2023-10-19T09:16:56;18.10;99.90
24146;DHT22;12308;50.948;4.706;2023-10-19T09:19:44;18.30;99.90
24146;DHT22;12308;50.948;4.706;2023-10-19T09:22:13;18.50;99.90
24146;DHT22;12308;50.948;4.706;2023-10-19T09:24:47;18.60;99.90
24146;DHT22;12308;50.948;4.706;2023-10-19T09:27:17;18.70;99.90
24146;DHT22;12308;50.948;4.706;2023-10-19T09:29:43;18.80;99.90
24146;DHT22;12308;50.948;4.706;2023-10-19T09:32:09;18.80;99.90
24146;DHT22;12308;50.948;4.706;2023-10-19T09:34:36;18.80;99.90
24146;DHT22;12308;50.948;4.706;2023-10-19T09:37:03;18.80;99.90
24146;DHT22;12308;50.948;4.706;2023-10-19T09:39:32;18.80;99.90
24146;DHT22;12308;50.948;4.706;2023-10-19T09:42:10;18.90;99.90
24146;DHT22;12308;50.948;4.706;2023-10-19T09:44:48;19.10;99.90
24146;DHT22;12308;50.948;4.706;2023-10-19T09:47:26;19.30;99.90
24146;DHT22;12308;50.948;4.706;2023-10-19T09:49:57;19.40;99.90
24146;DHT22;12308;50.948;4.706;2023-10-19T09:52:23;19.30;99.90
24146;DHT22;12308;50.948;4.706;2023-10-19T09:54:54;19.30;99.90
24146;DHT22;12308;50.948;4.706;2023-10-19T09:57:31;19.40;99.90
24146;DHT22;12308;50.948;4.706;2023-10-19T10:00:02;19.30;99.90
24146;DHT22;12308;50.948;4.706;2023-10-19T10:02:39;19.40;99.90
24146;DHT22;12308;50.948;4.706;2023-10-19T10:10:45;19.50;99.90
24146;DHT22;12308;50.948;4.706;2023-10-19T10:15:52;19.60;99.90
24146;DHT22;12308;50.948;4.706;2023-10-19T10:18:20;19.70;99.90
24146;DHT22;12308;50.948;4.706;2023-10-19T10:20:46;19.50;99.90
24146;DHT22;12308;50.948;4.706;2023-10-19T10:23:19;19.40;99.90
24146;DHT22;12308;50.948;4.706;2023-10-19T10:25:50;19.20;99.90
24146;DHT22;12308;50.948;4.706;2023-10-19T10:28:24;19.10;99.90
24146;DHT22;12308;50.948;4.706;2023-10-19T10:31:18;19.40;99.90
24146;DHT22;12308;50.948;4.706;2023-10-19T10:33:50;19.40;99.90
24146;DHT22;12308;50.948;4.706;2023-10-19T10:36:17;19.80;99.90
24146;DHT22;12308;50.948;4.706;2023-10-19T10:38:45;19.90;99.90
24146;DHT22;12308;50.948;4.706;2023-10-19T10:41:11;19.70;99.90
24146;DHT22;12308;50.948;4.706;2023-10-19T10:43:57;19.90;99.90
24146;DHT22;12308;50.948;4.706;2023-10-19T10:46:27;20.00;99.90
24146;DHT22;12308;50.948;4.706;2023-10-19T10:48:54;20.00;99.90
24146;DHT22;12308;50.948;4.706;2023-10-19T10:51:28;20.00;99.90
24146;DHT22;12308;50.948;4.706;2023-10-19T10:53:57;20.20;99.90
24146;DHT22;12308;50.948;4.706;2023-10-19T10:56:24;20.30;99.90
24146;DHT22;12308;50.948;4.706;2023-10-19T10:58:50;20.50;99.90
24146;DHT22;12308;50.948;4.706;2023-10-19T11:01:27;20.50;99.90
24146;DHT22;12308;50.948;4.706;2023-10-19T11:04:09;20.50;99.90
24146;DHT22;12308;50.948;4.706;2023-10-19T11:06:52;20.40;99.90
24146;DHT22;12308;50.948;4.706;2023-10-19T11:09:19;20.00;99.90
24146;DHT22;12308;50.948;4.706;2023-10-19T11:11:47;19.70;99.90
24146;DHT22;12308;50.948;4.706;2023-10-19T11:14:14;19.40;99.90
24146;DHT22;12308;50.948;4.706;2023-10-19T11:16:41;19.30;99.90
24146;DHT22;12308;50.948;4.706;2023-10-19T11:19:08;19.10;99.90
24146;DHT22;12308;50.948;4.706;2023-10-19T11:21:35;18.90;99.90
24146;DHT22;12308;50.948;4.706;2023-10-19T11:24:01;18.80;99.90
24146;DHT22;12308;50.948;4.706;2023-10-19T11:26:27;18.70;99.90
24146;DHT22;12308;50.948;4.706;2023-10-19T11:29:01;18.70;99.90
24146;DHT22;12308;50.948;4.706;2023-10-19T11:31:27;18.50;99.90
24146;DHT22;12308;50.948;4.706;2023-10-19T11:33:54;18.30;99.90
24146;DHT22;12308;50.948;4.706;2023-10-19T11:36:26;18.30;99.90
24146;DHT22;12308;50.948;4.706;2023-10-19T11:38:53;18.10;99.90
24146;DHT22;12308;50.948;4.706;2023-10-19T11:41:19;18.20;99.90
24146;DHT22;12308;50.948;4.706;2023-10-19T11:43:46;18.30;99.90
24146;DHT22;12308;50.948;4.706;2023-10-19T11:46:12;18.30;99.90
24146;DHT22;12308;50.948;4.706;2023-10-19T11:48:39;18.40;99.90
24146;DHT22;12308;50.948;4.706;2023-10-19T11:51:06;18.40;99.90
24146;DHT22;12308;50.948;4.706;2023-10-19T11:53:33;18.40;99.90
24146;DHT22;12308;50.948;4.706;2023-10-19T11:56:07;18.40;99.90
24146;DHT22;12308;50.948;4.706;2023-10-19T11:58:36;18.40;99.90
24146;DHT22;12308;50.948;4.706;2023-10-19T12:01:10;18.30;99.90
24146;DHT22;12308;50.948;4.706;2023-10-19T12:03:41;18.30;99.90
24146;DHT22;12308;50.948;4.706;2023-10-19T12:06:11;18.20;99.90
24146;DHT22;12308;50.948;4.706;2023-10-19T12:08:38;18.10;99.90
24146;DHT22;12308;50.948;4.706;2023-10-19T12:11:05;18.20;99.90
24146;DHT22;12308;50.948;4.706;2023-10-19T12:13:41;18.20;99.90
24146;DHT22;12308;50.948;4.706;2023-10-19T12:16:12;18.20;99.90
24146;DHT22;12308;50.948;4.706;2023-10-19T12:18:41;18.30;99.90
24146;DHT22;12308;50.948;4.706;2023-10-19T12:21:10;18.30;99.90
24146;DHT22;12308;50.948;4.706;2023-10-19T12:23:43;18.30;99.90
24146;DHT22;12308;50.948;4.706;2023-10-19T12:26:09;18.20;99.90
24146;DHT22;12308;50.948;4.706;2023-10-19T12:28:38;18.20;99.90
24146;DHT22;12308;50.948;4.706;2023-10-19T12:31:04;18.20;99.90
24146;DHT22;12308;50.948;4.706;2023-10-19T12:33:37;18.10;99.90
24146;DHT22;12308;50.948;4.706;2023-10-19T12:36:04;18.00;99.90
24146;DHT22;12308;50.948;4.706;2023-10-19T12:38:50;18.00;99.90
24146;DHT22;12308;50.948;4.706;2023-10-19T12:41:16;17.90;99.90
24146;DHT22;12308;50.948;4.706;2023-10-19T12:43:43;17.90;99.90
24146;DHT22;12308;50.948;4.706;2023-10-19T12:46:09;17.90;99.90
24146;DHT22;12308;50.948;4.706;2023-10-19T12:48:35;17.90;99.90
24146;DHT22;12308;50.948;4.706;2023-10-19T12:51:09;17.90;99.90
24146;DHT22;12308;50.948;4.706;2023-10-19T12:53:37;17.90;99.90
24146;DHT22;12308;50.948;4.706;2023-10-19T12:56:05;18.00;99.90
24146;DHT22;12308;50.948;4.706;2023-10-19T12:58:31;18.10;99.90
24146;DHT22;12308;50.948;4.706;2023-10-19T13:00:58;18.40;99.90
24146;DHT22;12308;50.948;4.706;2023-10-19T13:03:24;18.60;99.90
24146;DHT22;12308;50.948;4.706;2023-10-19T13:05:53;18.80;99.90
24146;DHT22;12308;50.948;4.706;2023-10-19T13:08:19;19.00;99.90
24146;DHT22;12308;50.948;4.706;2023-10-19T13:10:47;19.00;99.90
24146;DHT22;12308;50.948;4.706;2023-10-19T13:13:14;19.10;99.90
24146;DHT22;12308;50.948;4.706;2023-10-19T13:15:42;19.10;99.90
24146;DHT22;12308;50.948;4.706;2023-10-19T13:18:10;19.20;99.90
24146;DHT22;12308;50.948;4.706;2023-10-19T13:20:40;19.20;99.90
24146;DHT22;12308;50.948;4.706;2023-10-19T13:23:10;19.40;99.90
24146;DHT22;12308;50.948;4.706;2023-10-19T13:25:42;19.50;99.90
24146;DHT22;12308;50.948;4.706;2023-10-19T13:28:12;19.60;99.90
24146;DHT22;12308;50.948;4.706;2023-10-19T13:30:42;19.50;99.90
24146;DHT22;12308;50.948;4.706;2023-10-19T13:33:09;19.30;99.90
24146;DHT22;12308;50.948;4.706;2023-10-19T13:35:36;19.40;99.90
24146;DHT22;12308;50.948;4.706;2023-10-19T13:38:04;19.30;99.90
24146;DHT22;12308;50.948;4.706;2023-10-19T13:40:29;19.50;99.90
24146;DHT22;12308;50.948;4.706;2023-10-19T13:42:57;19.60;99.90
24146;DHT22;12308;50.948;4.706;2023-10-19T13:45:23;19.70;99.90
24146;DHT22;12308;50.948;4.706;2023-10-19T13:47:49;19.50;99.90
24146;DHT22;12308;50.948;4.706;2023-10-19T13:50:15;19.40;99.90
24146;DHT22;12308;50.948;4.706;2023-10-19T13:52:41;19.40;99.90
24146;DHT22;12308;50.948;4.706;2023-10-19T13:55:07;19.40;99.90
24146;DHT22;12308;50.948;4.706;2023-10-19T13:57:33;19.60;99.90
24146;DHT22;12308;50.948;4.706;2023-10-19T13:59:59;19.70;99.90
24146;DHT22;12308;50.948;4.706;2023-10-19T14:02:26;19.70;99.90
24146;DHT22;12308;50.948;4.706;2023-10-19T14:04:52;19.80;99.90
24146;DHT22;12308;50.948;4.706;2023-10-19T14:07:18;19.70;99.90
24146;DHT22;12308;50.948;4.706;2023-10-19T14:09:45;19.90;99.90
24146;DHT22;12308;50.948;4.706;2023-10-19T14:12:11;19.80;99.90
24146;DHT22;12308;50.948;4.706;2023-10-19T14:14:36;19.80;99.90
24146;DHT22;12308;50.948;4.706;2023-10-19T14:17:02;19.80;99.90
24146;DHT22;12308;50.948;4.706;2023-10-19T14:19:28;19.70;99.90
24146;DHT22;12308;50.948;4.706;2023-10-19T14:21:54;19.60;99.90
24146;DHT22;12308;50.948;4.706;2023-10-19T14:24:19;19.60;99.90
24146;DHT22;12308;50.948;4.706;2023-10-19T14:26:46;19.60;99.90
24146;DHT22;12308;50.948;4.706;2023-10-19T14:29:12;19.40;99.90
24146;DHT22;12308;50.948;4.706;2023-10-19T14:31:39;19.40;99.90
24146;DHT22;12308;50.948;4.706;2023-10-19T14:34:06;19.40;99.90
24146;DHT22;12308;50.948;4.706;2023-10-19T14:36:33;19.50;99.90
24146;DHT22;12308;50.948;4.706;2023-10-19T14:38:59;19.60;99.90
24146;DHT22;12308;50.948;4.706;2023-10-19T14:41:25;19.60;99.90
24146;DHT22;12308;50.948;4.706;2023-10-19T14:43:50;19.60;99.90
24146;DHT22;12308;50.948;4.706;2023-10-19T14:46:16;19.60;99.90
24146;DHT22;12308;50.948;4.706;2023-10-19T14:48:41;19.60;99.90
24146;DHT22;12308;50.948;4.706;2023-10-19T14:51:07;19.50;99.90
24146;DHT22;12308;50.948;4.706;2023-10-19T14:53:34;19.50;99.90
24146;DHT22;12308;50.948;4.706;2023-10-19T14:55:59;19.50;99.90
24146;DHT22;12308;50.948;4.706;2023-10-19T14:58:26;19.40;99.90
24146;DHT22;12308;50.948;4.706;2023-10-19T15:00:52;19.30;99.90
24146;DHT22;12308;50.948;4.706;2023-10-19T15:03:21;19.30;99.90
24146;DHT22;12308;50.948;4.706;2023-10-19T15:05:52;19.30;99.90
24146;DHT22;12308;50.948;4.706;2023-10-19T15:08:19;19.20;99.90
24146;DHT22;12308;50.948;4.706;2023-10-19T15:10:45;19.10;99.90
24146;DHT22;12308;50.948;4.706;2023-10-19T15:13:11;19.10;99.90
24146;DHT22;12308;50.948;4.706;2023-10-19T15:15:36;19.10;99.90
24146;DHT22;12308;50.948;4.706;2023-10-19T15:18:02;19.10;99.90
24146;DHT22;12308;50.948;4.706;2023-10-19T15:20:30;19.10;99.90
24146;DHT22;12308;50.948;4.706;2023-10-19T15:22:56;19.00;99.90
24146;DHT22;12308;50.948;4.706;2023-10-19T15:25:23;19.00;99.90
24146;DHT22;12308;50.948;4.706;2023-10-19T15:27:52;19.00;99.90
24146;DHT22;12308;50.948;4.706;2023-10-19T15:30:19;19.10;99.90
24146;DHT22;12308;50.948;4.706;2023-10-19T15:32:49;19.10;99.90
24146;DHT22;12308;50.948;4.706;2023-10-19T15:35:16;19.30;99.90
24146;DHT22;12308;50.948;4.706;2023-10-19T15:37:52;19.30;99.90
24146;DHT22;12308;50.948;4.706;2023-10-19T15:40:21;19.40;99.90
24146;DHT22;12308;50.948;4.706;2023-10-19T15:42:47;19.30;99.90
24146;DHT22;12308;50.948;4.706;2023-10-19T15:45:14;19.30;99.90
24146;DHT22;12308;50.948;4.706;2023-10-19T15:47:44;19.30;99.90